createdAt,value
2023-05-22T00:01:56.742Z,12.50
2023-05-22T00:04:24.007Z,12.50
2023-05-22T00:06:51.194Z,12.50
2023-05-22T00:09:18.338Z,12.40
2023-05-22T00:11:45.249Z,12.40
2023-05-22T00:14:13.768Z,12.40
2023-05-22T00:16:41.544Z,12.30
2023-05-22T00:19:17.389Z,12.30
2023-05-22T00:21:44.961Z,12.20
2023-05-22T00:24:12.338Z,12.20
2023-05-22T00:26:39.087Z,12.20
2023-05-22T00:29:06.023Z,12.20
2023-05-22T00:31:33.246Z,12.20
2023-05-22T00:34:00.160Z,12.20
2023-05-22T00:36:27.121Z,12.10
2023-05-22T00:38:54.131Z,12.10
2023-05-22T00:41:22.306Z,12.00
2023-05-22T00:43:51.045Z,11.90
2023-05-22T00:46:21.842Z,11.80
2023-05-22T00:48:49.169Z,11.80
2023-05-22T00:51:16.197Z,11.80
2023-05-22T00:53:44.096Z,11.70
2023-05-22T00:56:11.276Z,11.70
2023-05-22T00:58:38.238Z,11.70
2023-05-22T01:01:07.957Z,11.60
2023-05-22T01:03:37.585Z,11.60
2023-05-22T01:06:04.791Z,11.60
2023-05-22T01:08:31.573Z,11.60
2023-05-22T01:11:10.747Z,11.50
2023-05-22T01:13:53.802Z,11.50
2023-05-22T01:16:39.319Z,11.40
2023-05-22T01:19:39.479Z,11.40
2023-05-22T01:22:25.404Z,11.40
2023-05-22T01:25:04.165Z,11.30
2023-05-22T01:28:04.884Z,11.20
2023-05-22T01:30:55.150Z,11.10
2023-05-22T01:33:26.268Z,11.10
2023-05-22T01:35:57.209Z,11.00
2023-05-22T01:38:25.213Z,11.00
2023-05-22T01:40:52.899Z,11.00
2023-05-22T01:43:20.382Z,11.00
2023-05-22T01:45:47.725Z,11.00
2023-05-22T01:48:14.541Z,11.00
2023-05-22T01:50:42.033Z,11.00
2023-05-22T01:53:27.895Z,11.00
2023-05-22T01:55:56.124Z,10.90
2023-05-22T01:58:39.577Z,10.80
2023-05-22T02:01:10.379Z,10.70
2023-05-22T02:03:39.900Z,10.70
2023-05-22T02:06:10.040Z,10.70
2023-05-22T02:08:39.595Z,10.60
2023-05-22T02:11:07.690Z,10.70
2023-05-22T02:13:35.361Z,10.60
2023-05-22T02:16:04.268Z,10.60
2023-05-22T02:18:31.764Z,10.50
2023-05-22T02:20:59.120Z,10.50
2023-05-22T02:23:29.897Z,10.40
2023-05-22T02:25:57.068Z,10.40
2023-05-22T02:28:24.851Z,10.30
2023-05-22T02:30:52.155Z,10.30
2023-05-22T02:33:19.105Z,10.20
2023-05-22T02:35:46.632Z,10.20
2023-05-22T02:38:13.532Z,10.20
2023-05-22T02:40:40.922Z,10.10
2023-05-22T02:43:08.233Z,10.10
2023-05-22T02:45:35.021Z,10.00
2023-05-22T02:48:04.009Z,10.00
2023-05-22T02:50:30.801Z,10.00
2023-05-22T02:52:57.824Z,10.10
2023-05-22T02:55:24.763Z,10.10
2023-05-22T02:57:51.517Z,10.00
2023-05-22T03:00:19.160Z,10.00
2023-05-22T03:02:45.984Z,9.90
2023-05-22T03:05:18.303Z,9.90
2023-05-22T03:07:48.400Z,9.90
2023-05-22T03:10:15.775Z,10.00
2023-05-22T03:12:42.797Z,9.90
2023-05-22T03:15:10.304Z,9.90
2023-05-22T03:17:37.435Z,9.90
2023-05-22T03:20:05.634Z,9.80
2023-05-22T03:22:32.705Z,9.80
2023-05-22T03:24:59.448Z,9.80
2023-05-22T03:27:28.561Z,9.70
2023-05-22T03:29:55.378Z,9.70
2023-05-22T03:32:22.201Z,9.80
2023-05-22T03:34:49.239Z,9.70
2023-05-22T03:37:16.152Z,9.80
2023-05-22T03:39:43.136Z,9.80
2023-05-22T03:42:10.376Z,9.80
2023-05-22T03:44:37.154Z,9.80
2023-05-22T03:47:04.383Z,9.80
2023-05-22T03:49:31.152Z,9.80
2023-05-22T03:51:57.882Z,9.90
2023-05-22T03:54:24.923Z,9.90
2023-05-22T03:56:51.760Z,10.00
2023-05-22T03:59:18.801Z,10.00
2023-05-22T04:01:46.745Z,10.10
2023-05-22T04:04:13.779Z,10.20
2023-05-22T04:06:43.152Z,10.20
2023-05-22T04:09:12.242Z,10.30
2023-05-22T04:11:42.507Z,10.40
2023-05-22T04:14:10.118Z,10.50
2023-05-22T04:16:37.105Z,10.70
2023-05-22T04:19:04.047Z,10.90
2023-05-22T04:21:34.358Z,11.30
2023-05-22T04:24:02.461Z,11.60
2023-05-22T04:26:32.130Z,12.00
2023-05-22T04:28:59.011Z,12.40
2023-05-22T04:31:25.857Z,12.90
2023-05-22T04:33:54.671Z,13.40
2023-05-22T04:36:26.935Z,13.80
2023-05-22T04:38:54.143Z,14.30
2023-05-22T04:41:26.914Z,14.70
2023-05-22T04:43:54.600Z,15.00
2023-05-22T04:46:21.810Z,15.30
2023-05-22T04:48:48.778Z,15.70
2023-05-22T04:51:15.976Z,16.10
2023-05-22T04:53:42.831Z,16.50
2023-05-22T04:56:09.602Z,17.00
2023-05-22T04:58:38.402Z,17.50
2023-05-22T05:01:05.476Z,18.00
2023-05-22T05:03:32.640Z,18.50
2023-05-22T05:06:00.520Z,18.90
2023-05-22T05:08:27.549Z,19.50
2023-05-22T05:10:54.632Z,20.10
2023-05-22T05:13:21.378Z,20.50
2023-05-22T05:15:55.210Z,20.90
2023-05-22T05:18:21.968Z,21.10
2023-05-22T05:20:49.072Z,21.40
2023-05-22T05:23:16.115Z,21.50
2023-05-22T05:25:42.836Z,21.70
2023-05-22T05:28:11.907Z,21.90
2023-05-22T05:30:40.322Z,22.40
2023-05-22T05:33:07.946Z,22.80
2023-05-22T05:35:35.133Z,23.20
2023-05-22T05:38:01.878Z,23.70
2023-05-22T05:40:28.913Z,24.20
2023-05-22T05:42:56.301Z,24.50
2023-05-22T05:45:23.094Z,24.80
2023-05-22T05:47:50.186Z,25.30
2023-05-22T05:50:17.290Z,25.80
2023-05-22T05:52:44.146Z,26.30
2023-05-22T05:55:11.178Z,26.50
2023-05-22T05:57:38.270Z,26.60
2023-05-22T06:00:06.880Z,26.40
2023-05-22T06:02:34.443Z,25.60
2023-05-22T06:05:02.230Z,25.80
2023-05-22T06:07:29.679Z,25.00
2023-05-22T06:09:56.854Z,25.40
2023-05-22T06:12:23.748Z,25.90
2023-05-22T06:14:51.066Z,25.60
2023-05-22T06:17:17.857Z,25.30
2023-05-22T06:19:44.940Z,25.50
2023-05-22T06:22:12.055Z,26.00
2023-05-22T06:24:38.838Z,25.50
2023-05-22T06:27:05.752Z,25.70
2023-05-22T06:29:32.801Z,25.60
2023-05-22T06:31:59.590Z,25.20
2023-05-22T06:34:27.709Z,25.50
2023-05-22T06:36:54.537Z,25.70
2023-05-22T06:39:21.576Z,25.90
2023-05-22T06:41:48.621Z,25.80
2023-05-22T06:44:15.415Z,26.30
2023-05-22T06:46:42.158Z,26.60
2023-05-22T06:49:09.189Z,26.70
2023-05-22T06:51:35.945Z,26.10
2023-05-22T06:54:06.789Z,25.90
2023-05-22T06:56:33.611Z,25.90
2023-05-22T06:59:01.064Z,25.80
2023-05-22T07:01:29.361Z,26.30
2023-05-22T07:04:05.428Z,26.80
2023-05-22T07:06:33.661Z,27.70
2023-05-22T07:09:00.707Z,28.40
2023-05-22T07:11:27.529Z,29.20
2023-05-22T07:13:54.588Z,30.70
2023-05-22T07:16:22.609Z,32.00
2023-05-22T07:18:49.630Z,33.10
2023-05-22T07:21:16.643Z,33.90
2023-05-22T07:23:43.330Z,34.70
2023-05-22T07:26:10.050Z,35.10
2023-05-22T07:28:36.968Z,34.90
2023-05-22T07:31:04.189Z,35.00
2023-05-22T07:33:30.864Z,35.00
2023-05-22T07:35:57.540Z,35.00
2023-05-22T07:38:24.503Z,35.30
2023-05-22T07:40:51.198Z,36.50
2023-05-22T07:43:18.128Z,37.10
2023-05-22T07:45:44.887Z,36.50
2023-05-22T07:48:11.907Z,36.40
2023-05-22T07:50:38.934Z,36.80
2023-05-22T07:53:06.470Z,37.40
2023-05-22T07:55:33.262Z,37.30
2023-05-22T07:58:00.221Z,37.80
2023-05-22T08:00:27.612Z,37.50
2023-05-22T08:02:54.430Z,36.90
2023-05-22T08:05:21.325Z,37.20
2023-05-22T08:07:48.097Z,37.50
2023-05-22T08:10:16.666Z,37.80
2023-05-22T08:12:43.635Z,37.40
2023-05-22T08:15:11.351Z,37.10
2023-05-22T08:17:38.396Z,37.50
2023-05-22T08:20:06.499Z,37.60
2023-05-22T08:22:34.150Z,38.40
2023-05-22T08:25:01.022Z,38.10
2023-05-22T08:27:28.103Z,39.00
2023-05-22T08:29:55.071Z,37.70
2023-05-22T08:32:21.888Z,36.80
2023-05-22T08:34:48.904Z,36.10
2023-05-22T08:37:15.851Z,37.20
2023-05-22T08:39:42.988Z,37.00
2023-05-22T08:42:09.676Z,35.90
2023-05-22T08:44:36.718Z,34.90
2023-05-22T08:47:09.807Z,34.30
2023-05-22T08:49:38.715Z,34.80
2023-05-22T08:52:14.470Z,36.00
2023-05-22T08:54:43.662Z,35.10
2023-05-22T08:57:11.088Z,35.10
2023-05-22T08:59:40.935Z,34.10
2023-05-22T09:02:09.153Z,34.50
2023-05-22T09:04:36.242Z,36.00
2023-05-22T09:07:05.881Z,35.50
2023-05-22T09:09:37.828Z,35.10
2023-05-22T09:12:09.326Z,35.40
2023-05-22T09:14:43.469Z,36.70
2023-05-22T09:17:14.883Z,38.20
2023-05-22T09:19:46.303Z,37.60
2023-05-22T09:22:14.075Z,37.00
2023-05-22T09:24:42.414Z,36.40
2023-05-22T09:27:11.311Z,36.00
2023-05-22T09:29:49.943Z,36.10
2023-05-22T09:32:17.845Z,36.10
2023-05-22T09:34:46.973Z,36.40
2023-05-22T09:37:14.415Z,36.30
2023-05-22T09:39:44.436Z,37.40
2023-05-22T09:42:12.941Z,39.20
2023-05-22T09:44:39.930Z,39.60
2023-05-22T09:47:07.813Z,38.30
2023-05-22T09:49:52.982Z,38.60
2023-05-22T09:52:21.985Z,39.80
2023-05-22T09:54:55.568Z,38.80
2023-05-22T09:57:25.029Z,38.10
2023-05-22T09:59:54.843Z,36.80
2023-05-22T10:02:23.868Z,35.40
2023-05-22T10:04:51.562Z,35.30
2023-05-22T10:07:22.006Z,35.80
2023-05-22T10:09:54.676Z,36.30
2023-05-22T10:12:23.763Z,37.80
2023-05-22T10:14:50.885Z,39.30
2023-05-22T10:17:17.970Z,40.60
2023-05-22T10:19:47.175Z,40.50
2023-05-22T10:22:21.040Z,39.80
2023-05-22T10:24:48.973Z,40.10
2023-05-22T10:27:15.772Z,39.60
2023-05-22T10:29:50.656Z,39.40
2023-05-22T10:32:46.681Z,38.20
2023-05-22T10:35:50.264Z,37.70
2023-05-22T10:38:57.119Z,37.10
2023-05-22T10:41:26.580Z,38.00
2023-05-22T10:43:56.682Z,39.40
2023-05-22T10:46:23.640Z,39.40
2023-05-22T10:48:53.072Z,38.80
2023-05-22T10:51:23.897Z,38.60
2023-05-22T10:54:05.876Z,38.70
2023-05-22T10:56:37.075Z,37.90
2023-05-22T10:59:05.899Z,37.70
2023-05-22T11:01:36.467Z,38.20
2023-05-22T11:04:09.116Z,38.70
2023-05-22T11:06:37.615Z,38.90
2023-05-22T11:09:28.329Z,38.60
2023-05-22T11:12:17.398Z,38.10
2023-05-22T11:15:06.056Z,38.00
2023-05-22T11:17:43.191Z,38.80
2023-05-22T11:20:21.205Z,39.30
2023-05-22T11:22:57.195Z,36.80
2023-05-22T11:25:24.972Z,35.80
2023-05-22T11:27:53.315Z,36.60
2023-05-22T11:30:21.109Z,38.20
2023-05-22T11:32:48.308Z,39.90
2023-05-22T11:35:18.907Z,39.30
2023-05-22T11:37:46.658Z,37.90
2023-05-22T11:40:15.990Z,38.00
2023-05-22T11:42:42.828Z,36.80
2023-05-22T11:45:10.286Z,36.10
2023-05-22T11:47:37.755Z,35.00
2023-05-22T11:50:06.679Z,35.70
2023-05-22T11:52:34.524Z,36.90
2023-05-22T11:55:01.494Z,37.30
2023-05-22T11:57:28.549Z,36.70
2023-05-22T11:59:55.262Z,37.90
2023-05-22T12:02:22.004Z,38.40
2023-05-22T12:04:54.765Z,39.00
2023-05-22T12:07:22.882Z,38.60
2023-05-22T12:09:50.328Z,38.10
2023-05-22T12:12:17.283Z,38.20
2023-05-22T12:14:46.061Z,38.60
2023-05-22T12:17:13.801Z,38.70
2023-05-22T12:19:41.454Z,37.50
2023-05-22T12:22:09.981Z,35.80
2023-05-22T12:24:46.215Z,35.10
2023-05-22T12:27:13.948Z,35.40
2023-05-22T12:29:41.801Z,35.70
2023-05-22T12:32:13.068Z,36.10
2023-05-22T12:34:47.893Z,35.30
2023-05-22T12:37:22.985Z,35.90
2023-05-22T12:39:57.894Z,35.30
2023-05-22T12:42:28.759Z,33.20
2023-05-22T12:44:57.254Z,31.90
2023-05-22T12:47:25.068Z,30.80
2023-05-22T12:49:52.365Z,30.60
2023-05-22T12:52:19.228Z,30.90
2023-05-22T12:54:46.164Z,30.80
2023-05-22T12:57:12.945Z,30.40
2023-05-22T12:59:39.985Z,29.40
2023-05-22T13:02:07.117Z,28.70
2023-05-22T13:04:38.104Z,28.30
2023-05-22T13:07:05.040Z,28.60
2023-05-22T13:09:31.831Z,29.30
2023-05-22T13:11:58.859Z,29.80
2023-05-22T13:14:25.704Z,30.10
2023-05-22T13:16:52.731Z,29.70
2023-05-22T13:19:19.507Z,29.20
2023-05-22T13:21:46.327Z,29.00
2023-05-22T13:24:13.055Z,28.80
2023-05-22T13:26:39.793Z,28.60
2023-05-22T13:29:06.831Z,28.80
2023-05-22T13:31:37.599Z,29.40
2023-05-22T13:34:05.320Z,29.80
2023-05-22T13:36:50.694Z,29.60
2023-05-22T13:39:17.541Z,30.00
2023-05-22T13:41:44.860Z,30.00
2023-05-22T13:44:11.854Z,29.40
2023-05-22T13:46:40.724Z,28.90
2023-05-22T13:49:08.109Z,28.80
2023-05-22T13:51:34.906Z,28.90
2023-05-22T13:54:03.176Z,28.50
2023-05-22T13:56:29.923Z,28.30
2023-05-22T13:58:57.270Z,28.30
2023-05-22T14:01:24.201Z,27.90
2023-05-22T14:03:51.030Z,27.60
2023-05-22T14:06:17.907Z,27.50
2023-05-22T14:08:44.665Z,27.70
2023-05-22T14:11:11.430Z,27.40
2023-05-22T14:13:38.363Z,27.30
2023-05-22T14:16:05.601Z,27.40
2023-05-22T14:18:32.466Z,27.60
2023-05-22T14:20:59.246Z,27.50
2023-05-22T14:23:26.284Z,27.30
2023-05-22T14:25:53.023Z,27.10
2023-05-22T14:28:19.813Z,26.90
2023-05-22T14:30:46.926Z,26.80
2023-05-22T14:33:13.748Z,26.80
2023-05-22T14:35:40.839Z,26.80
2023-05-22T14:38:08.153Z,26.70
2023-05-22T14:40:34.881Z,26.50
2023-05-22T14:43:01.630Z,26.20
2023-05-22T14:45:28.618Z,26.10
2023-05-22T14:47:55.493Z,26.00
2023-05-22T14:50:22.356Z,25.90
2023-05-22T14:52:49.974Z,26.00
2023-05-22T14:55:17.553Z,26.00
2023-05-22T14:57:44.746Z,26.10
2023-05-22T15:00:12.574Z,26.20
2023-05-22T15:02:40.159Z,26.10
2023-05-22T15:05:07.763Z,26.10
2023-05-22T15:07:43.943Z,26.00
2023-05-22T15:10:12.175Z,26.10
2023-05-22T15:12:39.373Z,26.40
2023-05-22T15:15:06.591Z,26.60
2023-05-22T15:17:33.479Z,26.80
2023-05-22T15:20:00.549Z,26.80
2023-05-22T15:22:27.533Z,26.20
2023-05-22T15:25:08.876Z,25.90
2023-05-22T15:27:36.128Z,25.80
2023-05-22T15:30:04.053Z,25.70
2023-05-22T15:32:32.879Z,25.40
2023-05-22T15:34:59.994Z,25.30
2023-05-22T15:37:29.187Z,25.20
2023-05-22T15:40:40.709Z,25.20
2023-05-22T15:43:08.290Z,25.20
2023-05-22T15:45:38.693Z,25.10
2023-05-22T15:48:07.064Z,25.10
2023-05-22T15:50:34.133Z,25.20
2023-05-22T15:53:01.588Z,25.20
2023-05-22T15:55:29.057Z,25.20
2023-05-22T15:57:55.842Z,25.10
2023-05-22T16:00:22.707Z,25.10
2023-05-22T16:02:49.843Z,25.10
2023-05-22T16:05:16.977Z,25.10
2023-05-22T16:07:44.012Z,25.20
2023-05-22T16:10:11.187Z,25.20
2023-05-22T16:12:39.683Z,25.20
2023-05-22T16:15:07.362Z,25.30
2023-05-22T16:17:34.175Z,25.20
2023-05-22T16:20:01.307Z,25.20
2023-05-22T16:22:40.030Z,25.10
2023-05-22T16:26:11.046Z,25.00
2023-05-22T16:28:38.020Z,24.90
2023-05-22T16:31:06.283Z,24.70
2023-05-22T16:33:34.460Z,24.60
2023-05-22T16:36:01.510Z,24.60
2023-05-22T16:38:28.567Z,24.50
2023-05-22T16:40:55.327Z,24.50
2023-05-22T16:43:22.324Z,24.50
2023-05-22T16:45:51.531Z,24.50
2023-05-22T16:48:18.849Z,24.40
2023-05-22T16:50:46.694Z,24.40
2023-05-22T16:53:16.714Z,24.20
2023-05-22T16:55:43.950Z,24.20
2023-05-22T16:58:12.689Z,24.20
2023-05-22T17:00:40.511Z,24.10
2023-05-22T17:03:08.281Z,24.00
2023-05-22T17:05:36.228Z,23.90
2023-05-22T17:08:03.354Z,23.80
2023-05-22T17:10:30.497Z,23.70
2023-05-22T17:12:57.225Z,23.70
2023-05-22T17:15:24.127Z,23.70
2023-05-22T17:17:51.346Z,23.60
2023-05-22T17:20:18.277Z,23.60
2023-05-22T17:22:45.019Z,23.50
2023-05-22T17:25:12.116Z,23.40
2023-05-22T17:27:38.882Z,23.40
2023-05-22T17:30:07.721Z,23.30
2023-05-22T17:32:35.523Z,23.20
2023-05-22T17:35:02.405Z,23.10
2023-05-22T17:37:29.204Z,22.90
2023-05-22T17:39:55.958Z,22.80
2023-05-22T17:42:22.960Z,22.70
2023-05-22T17:44:49.828Z,22.50
2023-05-22T17:47:16.668Z,22.30
2023-05-22T17:49:43.431Z,22.20
2023-05-22T17:52:11.363Z,22.10
2023-05-22T17:54:38.302Z,22.00
2023-05-22T17:57:05.178Z,21.80
2023-05-22T17:59:33.034Z,21.70
2023-05-22T18:01:59.821Z,21.60
2023-05-22T18:04:26.660Z,21.50
2023-05-22T18:06:53.468Z,21.50
2023-05-22T18:09:20.345Z,21.40
2023-05-22T18:11:47.157Z,21.20
2023-05-22T18:14:14.215Z,21.00
2023-05-22T18:16:40.968Z,20.90
2023-05-22T18:19:08.006Z,20.80
2023-05-22T18:21:34.928Z,20.70
2023-05-22T18:24:01.667Z,20.60
2023-05-22T18:26:28.497Z,20.60
2023-05-22T18:28:55.461Z,20.50
2023-05-22T18:31:22.572Z,20.30
2023-05-22T18:33:49.414Z,20.20
2023-05-22T18:36:16.240Z,20.10
2023-05-22T18:38:43.202Z,19.90
2023-05-22T18:41:09.952Z,19.80
2023-05-22T18:43:36.746Z,19.70
2023-05-22T18:46:03.908Z,19.60
2023-05-22T18:48:31.325Z,19.50
2023-05-22T18:50:58.866Z,19.40
2023-05-22T18:53:26.358Z,19.30
2023-05-22T18:55:54.136Z,19.20
2023-05-22T18:58:21.366Z,19.10
2023-05-22T19:00:48.798Z,19.00
2023-05-22T19:03:15.578Z,18.90
2023-05-22T19:05:43.039Z,18.80
2023-05-22T19:08:10.079Z,18.70
2023-05-22T19:10:37.122Z,18.60
2023-05-22T19:13:04.204Z,18.50
2023-05-22T19:15:30.930Z,18.40
2023-05-22T19:17:58.070Z,18.40
2023-05-22T19:20:25.021Z,18.30
2023-05-22T19:22:52.221Z,18.20
2023-05-22T19:25:19.105Z,18.10
2023-05-22T19:27:47.823Z,18.00
2023-05-22T19:30:16.484Z,17.90
2023-05-22T19:32:43.866Z,17.90
2023-05-22T19:35:13.779Z,17.70
2023-05-22T19:37:40.570Z,17.60
2023-05-22T19:40:09.704Z,17.50
2023-05-22T19:42:38.745Z,17.40
2023-05-22T19:45:06.148Z,17.30
2023-05-22T19:47:32.965Z,17.20
2023-05-22T19:50:00.133Z,17.20
2023-05-22T19:52:26.976Z,17.10
2023-05-22T19:54:53.967Z,17.00
2023-05-22T19:57:20.830Z,16.90
2023-05-22T19:59:47.878Z,16.90
2023-05-22T20:02:14.673Z,16.80
2023-05-22T20:04:43.105Z,16.80
2023-05-22T20:07:10.924Z,16.70
2023-05-22T20:09:37.632Z,16.60
2023-05-22T20:12:04.789Z,16.60
2023-05-22T20:14:31.485Z,16.50
2023-05-22T20:17:01.450Z,16.50
2023-05-22T20:19:28.455Z,16.40
2023-05-22T20:21:56.591Z,16.30
2023-05-22T20:24:25.160Z,16.30
2023-05-22T20:26:52.822Z,16.20
2023-05-22T20:29:19.902Z,16.20
2023-05-22T20:31:46.832Z,16.10
2023-05-22T20:34:14.062Z,16.00
2023-05-22T20:36:42.616Z,16.00
2023-05-22T20:39:10.783Z,15.90
2023-05-22T20:41:38.742Z,15.80
2023-05-22T20:44:06.410Z,15.70
2023-05-22T20:46:33.404Z,15.70
2023-05-22T20:49:00.210Z,15.70
2023-05-22T20:51:32.824Z,15.60
2023-05-22T20:54:00.284Z,15.60
2023-05-22T20:56:27.758Z,15.60
2023-05-22T20:58:54.862Z,15.50
2023-05-22T21:01:22.589Z,15.50
2023-05-22T21:03:52.677Z,15.40
2023-05-22T21:06:20.254Z,15.40
2023-05-22T21:08:47.125Z,15.40
2023-05-22T21:11:13.971Z,15.40
2023-05-22T21:13:41.141Z,15.40
2023-05-22T21:16:08.165Z,15.30
2023-05-22T21:18:34.915Z,15.30
2023-05-22T21:21:01.742Z,15.30
2023-05-22T21:23:28.617Z,15.30
2023-05-22T21:25:55.337Z,15.20
2023-05-22T21:28:22.283Z,15.20
2023-05-22T21:30:49.008Z,15.20
2023-05-22T21:33:15.897Z,15.30
2023-05-22T21:35:42.898Z,15.30
2023-05-22T21:38:09.890Z,15.30
2023-05-22T21:40:36.680Z,15.30
2023-05-22T21:43:03.436Z,15.30
2023-05-22T21:45:31.374Z,15.30
2023-05-22T21:47:58.171Z,15.30
2023-05-22T21:50:25.056Z,15.30
2023-05-22T21:52:52.122Z,15.30
2023-05-22T21:55:18.811Z,15.20
2023-05-22T21:57:46.121Z,15.20
2023-05-22T22:00:13.428Z,15.10
2023-05-22T22:02:40.450Z,15.10
2023-05-22T22:05:08.132Z,15.00
2023-05-22T22:07:34.860Z,15.00
2023-05-22T22:10:01.928Z,15.00
2023-05-22T22:12:28.670Z,15.00
2023-05-22T22:14:57.016Z,15.00
2023-05-22T22:17:24.117Z,14.90
2023-05-22T22:19:53.857Z,14.90
2023-05-22T22:22:22.660Z,14.90
2023-05-22T22:24:49.939Z,14.80
2023-05-22T22:27:17.031Z,14.80
2023-05-22T22:29:44.000Z,14.80
2023-05-22T22:32:11.014Z,14.80
2023-05-22T22:34:38.160Z,14.70
2023-05-22T22:37:06.870Z,14.70
2023-05-22T22:39:33.923Z,14.70
2023-05-22T22:42:04.189Z,14.70
2023-05-22T22:44:32.034Z,14.60
2023-05-22T22:46:58.902Z,14.60
2023-05-22T22:49:25.657Z,14.60
2023-05-22T22:51:52.784Z,14.60
2023-05-22T22:54:19.600Z,14.60
2023-05-22T22:56:50.176Z,14.50
2023-05-22T22:59:17.137Z,14.50
2023-05-22T23:01:44.002Z,14.50
2023-05-22T23:04:11.483Z,14.50
2023-05-22T23:06:42.047Z,14.50
2023-05-22T23:09:11.370Z,14.40
2023-05-22T23:11:38.785Z,14.40
2023-05-22T23:14:09.151Z,14.40
2023-05-22T23:16:42.633Z,14.40
2023-05-22T23:19:10.999Z,14.30
2023-05-22T23:21:38.188Z,14.40
2023-05-22T23:24:05.560Z,14.30
2023-05-22T23:26:33.068Z,14.30
2023-05-22T23:29:00.804Z,14.20
2023-05-22T23:31:31.282Z,14.20
2023-05-22T23:33:58.978Z,14.10
2023-05-22T23:36:25.902Z,14.10
2023-05-22T23:38:53.048Z,14.10
2023-05-22T23:41:19.823Z,14.00
2023-05-22T23:43:46.773Z,14.00
2023-05-22T23:46:14.314Z,14.00
2023-05-22T23:48:42.154Z,13.90
2023-05-22T23:51:10.050Z,13.90
2023-05-22T23:53:36.920Z,13.90
2023-05-22T23:56:07.123Z,13.80
2023-05-22T23:58:33.834Z,13.80
